createdAt,value
2023-03-12T00:00:50.580Z,-0.83
2023-03-12T00:01:50.567Z,-0.86
2023-03-12T00:02:50.638Z,-0.91
2023-03-12T00:03:50.613Z,-0.93
2023-03-12T00:04:50.526Z,-0.96
2023-03-12T00:05:50.517Z,-1.01
2023-03-12T00:06:50.493Z,-1.01
2023-03-12T00:07:50.494Z,-1.05
2023-03-12T00:08:50.533Z,-1.07
2023-03-12T00:09:50.488Z,-1.07
2023-03-12T00:10:50.464Z,-1.09
2023-03-12T00:11:50.485Z,-1.07
2023-03-12T00:12:50.454Z,-1.05
2023-03-12T00:13:50.446Z,-1.05
2023-03-12T00:14:50.456Z,-1.04
2023-03-12T00:15:50.512Z,-1.04
2023-03-12T00:16:50.408Z,-1.04
2023-03-12T00:17:50.399Z,-1.05
2023-03-12T00:18:50.401Z,-1.08
2023-03-12T00:19:50.401Z,-1.11
2023-03-12T00:20:50.355Z,-1.12
2023-03-12T00:21:50.355Z,-1.17
2023-03-12T00:22:50.331Z,-1.17
2023-03-12T00:23:50.333Z,-1.17
2023-03-12T00:24:50.310Z,-1.20
2023-03-12T00:25:50.377Z,-1.23
2023-03-12T00:26:50.299Z,-1.25
2023-03-12T00:27:50.313Z,-1.23
2023-03-12T00:28:50.282Z,-1.25
2023-03-12T00:29:50.297Z,-1.25
2023-03-12T00:30:50.255Z,-1.25
2023-03-12T00:31:50.476Z,-1.27
2023-03-12T00:32:50.251Z,-1.27
2023-03-12T00:33:50.218Z,-1.27
2023-03-12T00:34:50.211Z,-1.26
2023-03-12T00:35:50.232Z,-1.22
2023-03-12T00:36:50.205Z,-1.23
2023-03-12T00:37:50.236Z,-1.20
2023-03-12T00:38:50.180Z,-1.19
2023-03-12T00:39:50.179Z,-1.20
2023-03-12T00:40:50.143Z,-1.19
2023-03-12T00:41:50.152Z,-1.19
2023-03-12T00:42:50.121Z,-1.19
2023-03-12T00:43:50.129Z,-1.23
2023-03-12T00:44:50.111Z,-1.23
2023-03-12T00:45:50.105Z,-1.27
2023-03-12T00:46:50.136Z,-1.30
2023-03-12T00:47:50.068Z,-1.29
2023-03-12T00:48:50.074Z,-1.29
2023-03-12T00:49:50.081Z,-1.27
2023-03-12T00:50:50.045Z,-1.29
2023-03-12T00:51:50.045Z,-1.32
2023-03-12T00:52:50.017Z,-1.32
2023-03-12T00:53:50.030Z,-1.32
2023-03-12T00:54:50.033Z,-1.27
2023-03-12T00:55:50.005Z,-1.26
2023-03-12T00:56:49.984Z,-1.25
2023-03-12T00:57:49.996Z,-1.26
2023-03-12T00:58:49.953Z,-1.26
2023-03-12T00:59:49.940Z,-1.23
2023-03-12T01:00:49.991Z,-1.22
2023-03-12T01:01:49.933Z,-1.23
2023-03-12T01:02:49.930Z,-1.20
2023-03-12T01:03:49.923Z,-1.23
2023-03-12T01:04:49.896Z,-1.23
2023-03-12T01:05:49.890Z,-1.23
2023-03-12T01:06:49.904Z,-1.22
2023-03-12T01:07:49.880Z,-1.22
2023-03-12T01:08:49.872Z,-1.19
2023-03-12T01:09:49.869Z,-1.20
2023-03-12T01:10:49.854Z,-1.22
2023-03-12T01:11:49.830Z,-1.19
2023-03-12T01:12:49.845Z,-1.14
2023-03-12T01:13:49.826Z,-1.11
2023-03-12T01:14:49.807Z,-1.09
2023-03-12T01:15:49.781Z,-1.05
2023-03-12T01:16:52.353Z,-1.02
2023-03-12T01:17:49.760Z,-1.01
2023-03-12T01:18:49.817Z,-0.96
2023-03-12T01:19:49.736Z,-1.02
2023-03-12T01:20:49.750Z,-1.04
2023-03-12T01:21:49.719Z,-1.05
2023-03-12T01:22:49.723Z,-1.08
2023-03-12T01:23:49.715Z,-1.09
2023-03-12T01:24:49.719Z,-1.14
2023-03-12T01:25:49.700Z,-1.12
2023-03-12T01:26:49.672Z,-1.17
2023-03-12T01:27:49.679Z,-1.25
2023-03-12T01:28:49.666Z,-1.22
2023-03-12T01:29:49.655Z,-1.19
2023-03-12T01:30:49.646Z,-1.14
2023-03-12T01:31:49.691Z,-1.12
2023-03-12T01:32:49.625Z,-1.11
2023-03-12T01:33:49.607Z,-1.09
2023-03-12T01:34:49.599Z,-1.07
2023-03-12T01:35:49.667Z,-1.05
2023-03-12T01:36:49.590Z,-1.04
2023-03-12T01:37:49.562Z,-1.01
2023-03-12T01:38:49.548Z,-1.01
2023-03-12T01:39:49.548Z,-0.99
2023-03-12T01:40:49.537Z,-1.01
2023-03-12T01:41:49.521Z,-1.01
2023-03-12T01:42:49.531Z,-1.07
2023-03-12T01:43:49.509Z,-1.11
2023-03-12T01:44:49.504Z,-1.20
2023-03-12T01:45:49.547Z,-1.30
2023-03-12T01:46:49.500Z,-1.38
2023-03-12T01:47:49.471Z,-1.46
2023-03-12T01:48:49.462Z,-1.50
2023-03-12T01:49:49.425Z,-1.53
2023-03-12T01:50:49.420Z,-1.47
2023-03-12T01:51:49.410Z,-1.46
2023-03-12T01:52:49.397Z,-1.43
2023-03-12T01:53:49.441Z,-1.38
2023-03-12T01:54:49.371Z,-1.35
2023-03-12T01:55:49.405Z,-1.30
2023-03-12T01:56:49.370Z,-1.29
2023-03-12T01:57:49.365Z,-1.30
2023-03-12T01:58:49.388Z,-1.27
2023-03-12T01:59:49.381Z,-1.23
2023-03-12T02:00:49.376Z,-1.19
2023-03-12T02:01:49.321Z,-1.19
2023-03-12T02:02:49.307Z,-1.15
2023-03-12T02:03:49.324Z,-1.11
2023-03-12T02:04:49.265Z,-1.08
2023-03-12T02:05:49.669Z,-1.07
2023-03-12T02:06:49.290Z,-1.05
2023-03-12T02:07:49.356Z,-1.05
2023-03-12T02:08:49.243Z,-1.08
2023-03-12T02:09:49.250Z,-1.07
2023-03-12T02:10:49.233Z,-1.08
2023-03-12T02:11:49.231Z,-1.07
2023-03-12T02:12:49.194Z,-1.11
2023-03-12T02:13:49.179Z,-1.14
2023-03-12T02:14:49.174Z,-1.14
2023-03-12T02:15:49.174Z,-1.14
2023-03-12T02:16:49.256Z,-1.14
2023-03-12T02:17:49.193Z,-1.15
2023-03-12T02:18:49.131Z,-1.11
2023-03-12T02:19:49.128Z,-1.19
2023-03-12T02:20:49.114Z,-1.14
2023-03-12T02:21:49.116Z,-1.15
2023-03-12T02:22:49.094Z,-1.12
2023-03-12T02:23:49.130Z,-1.11
2023-03-12T02:24:49.075Z,-1.09
2023-03-12T02:25:49.079Z,-1.05
2023-03-12T02:26:49.065Z,-1.05
2023-03-12T02:27:49.054Z,-1.02
2023-03-12T02:28:49.030Z,-1.01
2023-03-12T02:29:49.053Z,-0.97
2023-03-12T02:30:49.000Z,-0.96
2023-03-12T02:31:49.057Z,-0.94
2023-03-12T02:32:49.076Z,-0.93
2023-03-12T02:33:48.980Z,-0.90
2023-03-12T02:34:48.969Z,-0.89
2023-03-12T02:35:49.035Z,-0.86
2023-03-12T02:36:48.960Z,-0.85
2023-03-12T02:37:48.957Z,-0.90
2023-03-12T02:38:48.954Z,-0.94
2023-03-12T02:39:48.925Z,-0.97
2023-03-12T02:40:48.916Z,-1.02
2023-03-12T02:41:48.958Z,-1.02
2023-03-12T02:42:48.894Z,-1.04
2023-03-12T02:43:48.878Z,-1.02
2023-03-12T02:44:48.882Z,-1.02
2023-03-12T02:45:48.914Z,-1.04
2023-03-12T02:46:48.850Z,-1.04
2023-03-12T02:47:48.875Z,-1.02
2023-03-12T02:48:48.837Z,-0.99
2023-03-12T02:49:48.814Z,-1.01
2023-03-12T02:50:48.810Z,-0.97
2023-03-12T02:51:48.791Z,-0.94
2023-03-12T02:52:48.780Z,-0.93
2023-03-12T02:53:48.792Z,-0.93
2023-03-12T02:54:48.770Z,-0.90
2023-03-12T02:55:48.749Z,-0.86
2023-03-12T02:56:48.737Z,-0.82
2023-03-12T02:57:48.730Z,-0.80
2023-03-12T02:58:48.730Z,-0.78
2023-03-12T02:59:48.733Z,-0.77
2023-03-12T03:00:48.716Z,-0.77
2023-03-12T03:01:48.701Z,-0.82
2023-03-12T03:02:48.695Z,-0.82
2023-03-12T03:03:48.709Z,-0.83
2023-03-12T03:04:48.684Z,-0.83
2023-03-12T03:05:48.698Z,-0.86
2023-03-12T03:06:48.666Z,-0.89
2023-03-12T03:07:48.636Z,-0.86
2023-03-12T03:08:48.613Z,-0.90
2023-03-12T03:09:48.615Z,-0.89
2023-03-12T03:10:48.604Z,-0.86
2023-03-12T03:11:48.927Z,-0.89
2023-03-12T03:12:48.584Z,-0.90
2023-03-12T03:13:48.578Z,-0.89
2023-03-12T03:14:48.567Z,-0.90
2023-03-12T03:15:48.565Z,-0.93
2023-03-12T03:16:48.533Z,-0.97
2023-03-12T03:17:48.544Z,-0.99
2023-03-12T03:18:48.526Z,-1.04
2023-03-12T03:19:48.496Z,-1.04
2023-03-12T03:20:48.489Z,-1.04
2023-03-12T03:21:48.480Z,-1.07
2023-03-12T03:22:48.486Z,-1.07
2023-03-12T03:23:48.507Z,-1.09
2023-03-12T03:24:48.476Z,-1.11
2023-03-12T03:25:48.453Z,-1.08
2023-03-12T03:26:48.484Z,-1.05
2023-03-12T03:27:48.429Z,-1.07
2023-03-12T03:28:48.446Z,-1.02
2023-03-12T03:30:22.496Z,-1.01
2023-03-12T03:31:23.520Z,-1.01
2023-03-12T03:32:23.485Z,-0.96
2023-03-12T03:33:24.095Z,-0.93
2023-03-12T03:34:23.455Z,-0.90
2023-03-12T03:35:23.583Z,-0.86
2023-03-12T03:36:23.422Z,-0.83
2023-03-12T03:37:23.432Z,-0.82
2023-03-12T03:38:23.413Z,-0.80
2023-03-12T03:39:23.426Z,-0.82
2023-03-12T03:40:23.391Z,-0.82
2023-03-12T03:41:23.392Z,-0.82
2023-03-12T03:42:23.373Z,-0.82
2023-03-12T03:43:23.340Z,-0.83
2023-03-12T03:44:23.336Z,-0.85
2023-03-12T03:45:23.324Z,-0.89
2023-03-12T03:46:23.389Z,-0.93
2023-03-12T03:47:23.335Z,-0.91
2023-03-12T03:48:23.289Z,-0.96
2023-03-12T03:49:23.305Z,-0.94
2023-03-12T03:50:23.290Z,-0.94
2023-03-12T03:51:23.303Z,-0.97
2023-03-12T03:52:23.273Z,-1.01
2023-03-12T03:53:23.306Z,-1.01
2023-03-12T03:54:23.248Z,-0.97
2023-03-12T03:55:23.254Z,-0.99
2023-03-12T03:56:23.235Z,-0.96
2023-03-12T03:57:23.206Z,-0.93
2023-03-12T03:58:23.216Z,-0.91
2023-03-12T03:59:23.201Z,-0.90
2023-03-12T04:00:23.180Z,-0.90
2023-03-12T04:01:23.177Z,-0.91
2023-03-12T04:02:23.161Z,-0.91
2023-03-12T04:03:23.212Z,-0.96
2023-03-12T04:04:23.175Z,-0.94
2023-03-12T04:05:23.173Z,-0.96
2023-03-12T04:06:23.131Z,-0.99
2023-03-12T04:07:23.118Z,-0.99
2023-03-12T04:08:23.111Z,-1.01
2023-03-12T04:09:23.071Z,-0.97
2023-03-12T04:10:23.125Z,-1.04
2023-03-12T04:11:23.063Z,-1.02
2023-03-12T04:12:23.045Z,-1.01
2023-03-12T04:13:23.058Z,-1.01
2023-03-12T04:14:23.052Z,-0.99
2023-03-12T04:15:23.028Z,-0.99
2023-03-12T04:16:23.121Z,-0.97
2023-03-12T04:17:23.000Z,-0.97
2023-03-12T04:18:23.084Z,-0.99
2023-03-12T04:19:22.986Z,-0.94
2023-03-12T04:20:22.989Z,-0.97
2023-03-12T04:21:22.998Z,-0.94
2023-03-12T04:22:22.965Z,-0.96
2023-03-12T04:23:22.940Z,-0.97
2023-03-12T04:24:22.922Z,-1.01
2023-03-12T04:25:22.924Z,-1.05
2023-03-12T04:26:22.925Z,-1.05
2023-03-12T04:27:22.891Z,-1.04
2023-03-12T04:28:22.908Z,-1.07
2023-03-12T04:29:22.889Z,-1.07
2023-03-12T04:30:22.881Z,-1.07
2023-03-12T04:31:22.911Z,-1.04
2023-03-12T04:32:22.879Z,-1.04
2023-03-12T04:33:22.846Z,-1.07
2023-03-12T04:34:22.878Z,-1.05
2023-03-12T04:35:22.814Z,-1.11
2023-03-12T04:36:22.843Z,-1.12
2023-03-12T04:37:22.803Z,-1.14
2023-03-12T04:38:22.778Z,-1.12
2023-03-12T04:39:22.765Z,-1.15
2023-03-12T04:40:22.820Z,-1.17
2023-03-12T04:41:22.771Z,-1.15
2023-03-12T04:42:22.761Z,-1.14
2023-03-12T04:43:22.736Z,-1.17
2023-03-12T04:44:22.739Z,-1.14
2023-03-12T04:45:22.716Z,-1.15
2023-03-12T04:46:22.832Z,-1.14
2023-03-12T04:47:22.691Z,-1.12
2023-03-12T04:48:22.699Z,-1.11
2023-03-12T04:49:22.669Z,-1.09
2023-03-12T04:50:22.673Z,-1.05
2023-03-12T04:51:22.662Z,-1.05
2023-03-12T04:52:22.713Z,-1.04
2023-03-12T04:53:22.747Z,-1.02
2023-03-12T04:54:22.644Z,-1.05
2023-03-12T04:55:22.628Z,-1.02
2023-03-12T04:56:22.621Z,-0.99
2023-03-12T04:57:22.610Z,-0.97
2023-03-12T04:58:22.638Z,-0.99
2023-03-12T04:59:22.596Z,-0.99
2023-03-12T05:00:22.592Z,-0.94
2023-03-12T05:01:22.558Z,-0.91
2023-03-12T05:02:22.571Z,-0.89
2023-03-12T05:03:22.536Z,-0.85
2023-03-12T05:04:22.571Z,-0.82
2023-03-12T05:05:22.515Z,-0.77
2023-03-12T05:06:22.522Z,-0.74
2023-03-12T05:07:22.498Z,-0.77
2023-03-12T05:08:22.497Z,-0.82
2023-03-12T05:09:22.498Z,-0.90
2023-03-12T05:10:22.489Z,-0.99
2023-03-12T05:11:22.465Z,-1.01
2023-03-12T05:12:22.476Z,-1.05
2023-03-12T05:13:22.441Z,-1.11
2023-03-12T05:14:22.429Z,-1.15
2023-03-12T05:15:22.446Z,-1.17
2023-03-12T05:16:22.473Z,-1.17
2023-03-12T05:17:22.402Z,-1.19
2023-03-12T05:18:22.394Z,-1.22
2023-03-12T05:19:22.377Z,-1.20
2023-03-12T05:20:22.383Z,-1.19
2023-03-12T05:21:22.378Z,-1.19
2023-03-12T05:22:22.355Z,-1.20
2023-03-12T05:23:22.349Z,-1.20
2023-03-12T05:24:22.364Z,-1.20
2023-03-12T05:25:22.327Z,-1.17
2023-03-12T05:26:22.302Z,-1.15
2023-03-12T05:27:22.313Z,-1.11
2023-03-12T05:28:22.278Z,-1.07
2023-03-12T05:29:22.288Z,-1.05
2023-03-12T05:30:22.260Z,-1.04
2023-03-12T05:31:22.297Z,-1.08
2023-03-12T05:32:22.302Z,-1.07
2023-03-12T05:33:22.250Z,-1.05
2023-03-12T05:34:22.227Z,-1.05
2023-03-12T05:35:22.234Z,-1.08
2023-03-12T05:36:22.223Z,-1.05
2023-03-12T05:37:22.208Z,-1.05
2023-03-12T05:38:22.220Z,-1.08
2023-03-12T05:39:22.190Z,-1.09
2023-03-12T05:40:22.204Z,-1.11
2023-03-12T05:41:22.177Z,-1.15
2023-03-12T05:42:22.150Z,-1.12
2023-03-12T05:43:22.154Z,-1.09
2023-03-12T05:44:22.206Z,-1.08
2023-03-12T05:45:22.120Z,-1.08
2023-03-12T05:46:22.124Z,-1.02
2023-03-12T05:47:22.128Z,-0.99
2023-03-12T05:48:22.103Z,-1.01
2023-03-12T05:49:22.075Z,-0.94
2023-03-12T05:50:22.088Z,-0.89
2023-03-12T05:51:22.073Z,-0.85
2023-03-12T05:52:22.055Z,-0.80
2023-03-12T05:53:22.039Z,-0.78
2023-03-12T05:54:22.037Z,-0.74
2023-03-12T05:55:22.039Z,-0.71
2023-03-12T05:56:22.003Z,-0.72
2023-03-12T05:57:22.000Z,-0.71
2023-03-12T05:58:21.989Z,-0.71
2023-03-12T05:59:21.987Z,-0.72
2023-03-12T06:00:21.978Z,-0.72
2023-03-12T06:01:22.023Z,-0.70
2023-03-12T06:02:22.037Z,-0.67
2023-03-12T06:03:21.991Z,-0.64
2023-03-12T06:04:21.946Z,-0.59
2023-03-12T06:05:21.910Z,-0.54
2023-03-12T06:06:21.902Z,-0.52
2023-03-12T06:07:21.918Z,-0.47
2023-03-12T06:08:21.888Z,-0.46
2023-03-12T06:09:21.876Z,-0.41
2023-03-12T06:10:21.857Z,-0.39
2023-03-12T06:11:21.842Z,-0.38
2023-03-12T06:12:21.843Z,-0.41
2023-03-12T06:13:21.858Z,-0.41
2023-03-12T06:14:21.837Z,-0.47
2023-03-12T06:15:21.822Z,-0.49
2023-03-12T06:16:21.898Z,-0.57
2023-03-12T06:17:21.806Z,-0.62
2023-03-12T06:18:21.802Z,-0.62
2023-03-12T06:19:21.794Z,-0.64
2023-03-12T06:20:21.812Z,-0.64
2023-03-12T06:21:21.760Z,-0.61
2023-03-12T06:22:21.755Z,-0.61
2023-03-12T06:23:21.731Z,-0.57
2023-03-12T06:24:21.738Z,-0.59
2023-03-12T06:25:21.722Z,-0.62
2023-03-12T06:26:21.735Z,-0.62
2023-03-12T06:27:21.693Z,-0.64
2023-03-12T06:28:21.683Z,-0.68
2023-03-12T06:29:21.683Z,-0.67
2023-03-12T06:30:21.657Z,-0.68
2023-03-12T06:31:21.763Z,-0.74
2023-03-12T06:32:21.700Z,-0.75
2023-03-12T06:33:21.633Z,-0.74
2023-03-12T06:34:21.638Z,-0.74
2023-03-12T06:35:21.687Z,-0.71
2023-03-12T06:36:21.619Z,-0.70
2023-03-12T06:37:21.626Z,-0.68
2023-03-12T06:38:21.577Z,-0.68
2023-03-12T06:39:21.570Z,-0.64
2023-03-12T06:40:21.555Z,-0.61
2023-03-12T06:41:21.539Z,-0.64
2023-03-12T06:42:21.537Z,-0.67
2023-03-12T06:43:21.577Z,-0.65
2023-03-12T06:44:21.528Z,-0.71
2023-03-12T06:45:21.552Z,-0.72
2023-03-12T06:46:21.606Z,-0.74
2023-03-12T06:47:21.525Z,-0.72
2023-03-12T06:48:21.501Z,-0.75
2023-03-12T06:49:21.691Z,-0.75
2023-03-12T06:50:21.472Z,-0.78
2023-03-12T06:51:21.459Z,-0.78
2023-03-12T06:52:21.460Z,-0.75
2023-03-12T06:53:21.433Z,-0.75
2023-03-12T06:54:21.440Z,-0.72
2023-03-12T06:55:21.445Z,-0.72
2023-03-12T06:56:21.427Z,-0.70
2023-03-12T06:57:21.413Z,-0.67
2023-03-12T06:58:21.398Z,-0.65
2023-03-12T06:59:21.384Z,-0.64
2023-03-12T07:00:21.370Z,-0.61
2023-03-12T07:01:21.376Z,-0.59
2023-03-12T07:02:21.430Z,-0.61
2023-03-12T07:03:21.350Z,-0.59
2023-03-12T07:04:21.342Z,-0.56
2023-03-12T07:05:21.357Z,-0.52
2023-03-12T07:06:21.316Z,-0.49
2023-03-12T07:07:21.330Z,-0.44
2023-03-12T07:08:21.297Z,-0.46
2023-03-12T07:09:21.283Z,-0.43
2023-03-12T07:10:21.287Z,-0.36
2023-03-12T07:11:21.279Z,-0.38
2023-03-12T07:12:21.263Z,-0.38
2023-03-12T07:13:21.303Z,-0.35
2023-03-12T07:14:21.259Z,-0.35
2023-03-12T07:15:21.317Z,-0.34
2023-03-12T07:16:21.245Z,-0.32
2023-03-12T07:17:21.196Z,-0.34
2023-03-12T07:18:21.209Z,-0.32
2023-03-12T07:19:21.229Z,-0.35
2023-03-12T07:20:21.186Z,-0.35
2023-03-12T07:21:21.187Z,-0.34
2023-03-12T07:22:21.212Z,-0.38
2023-03-12T07:23:21.158Z,-0.38
2023-03-12T07:24:21.153Z,-0.35
2023-03-12T07:25:21.304Z,-0.36
2023-03-12T07:26:21.117Z,-0.36
2023-03-12T07:27:21.139Z,-0.34
2023-03-12T07:28:21.111Z,-0.29
2023-03-12T07:29:21.237Z,-0.25
2023-03-12T07:30:21.101Z,-0.25
2023-03-12T07:31:21.348Z,-0.23
2023-03-12T07:32:21.108Z,-0.20
2023-03-12T07:33:21.188Z,-0.21
2023-03-12T07:34:21.221Z,-0.25
2023-03-12T07:35:21.162Z,-0.26
2023-03-12T07:36:21.209Z,-0.23
2023-03-12T07:37:21.066Z,-0.25
2023-03-12T07:38:21.170Z,-0.25
2023-03-12T07:39:21.060Z,-0.25
2023-03-12T07:40:20.994Z,-0.23
2023-03-12T07:41:21.202Z,-0.18
2023-03-12T07:42:21.044Z,-0.17
2023-03-12T07:43:21.879Z,-0.18
2023-03-12T07:44:20.959Z,-0.14
2023-03-12T07:45:20.989Z,-0.14
2023-03-12T07:46:20.955Z,-0.13
2023-03-12T07:47:24.355Z,-0.10
2023-03-12T07:48:21.014Z,-0.06
2023-03-12T07:49:20.918Z,-0.02
2023-03-12T07:50:20.982Z,0.00
2023-03-12T07:51:20.922Z,0.05
2023-03-12T07:52:20.977Z,0.07
2023-03-12T07:53:20.872Z,0.08
2023-03-12T07:54:20.976Z,0.10
2023-03-12T07:55:20.996Z,0.16
2023-03-12T07:56:20.988Z,0.15
2023-03-12T07:57:20.888Z,0.18
2023-03-12T07:58:20.987Z,0.25
2023-03-12T07:59:20.876Z,0.23
2023-03-12T08:00:20.873Z,0.26
2023-03-12T08:01:20.881Z,0.31
2023-03-12T08:02:20.927Z,0.31
2023-03-12T08:03:21.025Z,0.32
2023-03-12T08:04:20.951Z,0.36
2023-03-12T08:05:20.745Z,0.40
2023-03-12T08:06:20.922Z,0.41
2023-03-12T08:07:20.795Z,0.46
2023-03-12T08:08:20.782Z,0.50
2023-03-12T08:09:20.689Z,0.56
2023-03-12T08:10:20.829Z,0.56
2023-03-12T08:11:20.686Z,0.55
2023-03-12T08:12:20.729Z,0.58
2023-03-12T08:13:20.854Z,0.59
2023-03-12T08:14:20.716Z,0.63
2023-03-12T08:15:20.656Z,0.66
2023-03-12T08:16:20.700Z,0.65
2023-03-12T08:17:20.654Z,0.63
2023-03-12T08:18:20.644Z,0.62
2023-03-12T08:19:20.641Z,0.63
2023-03-12T08:20:20.613Z,0.63
2023-03-12T08:21:20.593Z,0.69
2023-03-12T08:22:20.586Z,0.74
2023-03-12T08:23:20.553Z,0.80
2023-03-12T08:24:20.563Z,0.84
2023-03-12T08:25:20.597Z,0.87
2023-03-12T08:26:20.539Z,0.88
2023-03-12T08:27:20.535Z,0.91
2023-03-12T08:28:20.518Z,0.95
2023-03-12T08:29:20.515Z,0.95
2023-03-12T08:30:20.515Z,0.96
2023-03-12T08:31:20.610Z,0.99
2023-03-12T08:32:20.616Z,1.06
2023-03-12T08:33:20.479Z,1.14
2023-03-12T08:34:20.468Z,1.16
2023-03-12T08:35:20.468Z,1.16
2023-03-12T08:36:22.365Z,1.14
2023-03-12T08:37:20.446Z,1.16
2023-03-12T08:38:20.426Z,1.13
2023-03-12T08:39:20.416Z,1.19
2023-03-12T08:40:20.390Z,1.19
2023-03-12T08:41:20.438Z,1.23
2023-03-12T08:42:20.399Z,1.28
2023-03-12T08:43:20.375Z,1.31
2023-03-12T08:44:20.361Z,1.34
2023-03-12T08:45:20.365Z,1.32
2023-03-12T08:46:20.426Z,1.30
2023-03-12T08:47:20.349Z,1.32
2023-03-12T08:48:20.372Z,1.26
2023-03-12T08:49:20.338Z,1.30
2023-03-12T08:50:20.325Z,1.28
2023-03-12T08:51:20.328Z,1.30
2023-03-12T08:52:20.290Z,1.37
2023-03-12T08:53:20.281Z,1.42
2023-03-12T08:54:20.288Z,1.49
2023-03-12T08:55:20.252Z,1.52
2023-03-12T08:56:20.263Z,1.56
2023-03-12T08:57:20.257Z,1.58
2023-03-12T08:58:20.235Z,1.56
2023-03-12T08:59:20.247Z,1.56
2023-03-12T09:00:20.263Z,1.59
2023-03-12T09:01:20.208Z,1.59
2023-03-12T09:02:20.185Z,1.63
2023-03-12T09:03:20.227Z,1.62
2023-03-12T09:04:20.292Z,1.66
2023-03-12T09:05:20.224Z,1.68
2023-03-12T09:06:20.151Z,1.68
2023-03-12T09:07:20.151Z,1.68
2023-03-12T09:08:20.137Z,1.66
2023-03-12T09:09:20.140Z,1.62
2023-03-12T09:10:20.131Z,1.60
2023-03-12T09:11:20.147Z,1.60
2023-03-12T09:12:20.105Z,1.60
2023-03-12T09:13:20.103Z,1.66
2023-03-12T09:15:01.088Z,1.66
2023-03-12T09:15:20.084Z,1.70
2023-03-12T09:16:20.101Z,1.73
2023-03-12T09:17:20.090Z,1.73
2023-03-12T09:18:20.045Z,1.71
2023-03-12T09:19:20.046Z,1.74
2023-03-12T09:20:20.022Z,1.76
2023-03-12T09:21:20.011Z,1.77
2023-03-12T09:22:20.059Z,1.77
2023-03-12T09:23:19.985Z,1.78
2023-03-12T09:24:19.979Z,1.78
2023-03-12T09:25:20.005Z,1.81
2023-03-12T09:26:19.965Z,1.87
2023-03-12T09:27:19.963Z,1.88
2023-03-12T09:28:19.992Z,1.91
2023-03-12T09:29:19.928Z,1.95
2023-03-12T09:30:19.987Z,1.97
2023-03-12T09:31:19.970Z,2.06
2023-03-12T09:32:19.935Z,2.08
2023-03-12T09:33:19.894Z,2.13
2023-03-12T09:34:19.914Z,2.18
2023-03-12T09:35:19.888Z,2.20
2023-03-12T09:36:19.868Z,2.18
2023-03-12T09:37:22.354Z,2.17
2023-03-12T09:38:19.871Z,2.22
2023-03-12T09:39:19.845Z,2.26
2023-03-12T09:40:19.850Z,2.31
2023-03-12T09:41:19.802Z,2.35
2023-03-12T09:42:19.782Z,2.39
2023-03-12T09:43:19.785Z,2.43
2023-03-12T09:44:19.777Z,2.49
2023-03-12T09:45:19.787Z,2.53
2023-03-12T09:46:19.805Z,2.56
2023-03-12T09:47:19.828Z,2.61
2023-03-12T09:48:19.732Z,2.65
2023-03-12T09:49:19.741Z,2.71
2023-03-12T09:50:19.743Z,2.72
2023-03-12T09:51:19.725Z,2.79
2023-03-12T09:52:19.737Z,2.80
2023-03-12T09:53:19.787Z,2.83
2023-03-12T09:54:19.680Z,2.86
2023-03-12T09:55:19.680Z,2.90
2023-03-12T09:56:19.676Z,2.92
2023-03-12T09:57:19.663Z,2.97
2023-03-12T09:58:19.642Z,2.98
2023-03-12T09:59:19.675Z,3.00
2023-03-12T10:00:19.619Z,3.03
2023-03-12T10:01:19.633Z,3.00
2023-03-12T10:02:19.638Z,2.95
2023-03-12T10:03:19.720Z,2.97
2023-03-12T10:04:19.724Z,2.98
2023-03-12T10:05:19.613Z,3.01
2023-03-12T10:06:19.628Z,2.98
2023-03-12T10:07:19.566Z,2.97
2023-03-12T10:08:25.036Z,2.93
2023-03-12T10:09:19.564Z,2.80
2023-03-12T10:10:19.572Z,2.79
2023-03-12T10:11:19.510Z,2.77
2023-03-12T10:12:19.522Z,2.75
2023-03-12T10:13:19.508Z,2.75
2023-03-12T10:14:23.795Z,2.69
2023-03-12T10:15:19.529Z,2.65
2023-03-12T10:16:19.529Z,2.60
2023-03-12T10:17:19.457Z,2.56
2023-03-12T10:18:19.605Z,2.53
2023-03-12T10:19:19.440Z,2.53
2023-03-12T10:20:19.444Z,2.54
2023-03-12T10:21:19.458Z,2.57
2023-03-12T10:22:19.405Z,2.64
2023-03-12T10:23:19.404Z,2.67
2023-03-12T10:24:19.393Z,2.69
2023-03-12T10:25:19.417Z,2.74
2023-03-12T10:26:19.407Z,2.74
2023-03-12T10:27:19.357Z,2.74
2023-03-12T10:28:19.354Z,2.75
2023-03-12T10:29:19.354Z,2.79
2023-03-12T10:30:19.335Z,2.82
2023-03-12T10:31:19.413Z,2.82
2023-03-12T10:32:19.408Z,2.83
2023-03-12T10:33:19.314Z,2.83
2023-03-12T10:34:19.306Z,2.80
2023-03-12T10:35:21.665Z,2.74
2023-03-12T10:36:19.281Z,2.69
2023-03-12T10:37:19.266Z,2.67
2023-03-12T10:38:19.266Z,2.65
2023-03-12T10:39:19.259Z,2.64
2023-03-12T10:40:19.234Z,2.64
2023-03-12T10:41:19.232Z,2.67
2023-03-12T10:42:19.212Z,2.68
2023-03-12T10:43:19.211Z,2.71
2023-03-12T10:44:19.215Z,2.71
2023-03-12T10:45:19.238Z,2.74
2023-03-12T10:46:19.206Z,2.77
2023-03-12T10:47:19.191Z,2.77
2023-03-12T10:48:19.157Z,2.80
2023-03-12T10:49:19.143Z,2.75
2023-03-12T10:50:19.202Z,2.77
2023-03-12T10:51:19.148Z,2.79
2023-03-12T10:52:19.141Z,2.82
2023-03-12T10:53:19.111Z,2.79
2023-03-12T10:54:19.105Z,2.72
2023-03-12T10:55:19.099Z,2.62
2023-03-12T10:56:19.113Z,2.61
2023-03-12T10:57:19.078Z,2.62
2023-03-12T10:58:19.060Z,2.61
2023-03-12T10:59:19.079Z,2.57
2023-03-12T11:00:19.029Z,2.53
2023-03-12T11:01:19.135Z,2.53
2023-03-12T11:02:19.077Z,2.51
2023-03-12T11:03:19.047Z,2.53
2023-03-12T11:04:19.043Z,2.49
2023-03-12T11:05:18.989Z,2.44
2023-03-12T11:06:19.009Z,2.44
2023-03-12T11:07:18.976Z,2.39
2023-03-12T11:08:18.951Z,2.33
2023-03-12T11:09:18.972Z,2.33
2023-03-12T11:10:19.018Z,2.35
2023-03-12T11:11:18.945Z,2.31
2023-03-12T11:12:18.934Z,2.32
2023-03-12T11:13:18.938Z,2.29
2023-03-12T11:14:18.916Z,2.29
2023-03-12T11:15:18.963Z,2.24
2023-03-12T11:16:19.005Z,2.24
2023-03-12T11:17:18.865Z,2.22
2023-03-12T11:18:18.863Z,2.24
2023-03-12T11:19:18.852Z,2.26
2023-03-12T11:20:18.833Z,2.25
2023-03-12T11:21:18.844Z,2.26
2023-03-12T11:22:18.826Z,2.25
2023-03-12T11:23:18.810Z,2.25
2023-03-12T11:24:18.898Z,2.29
2023-03-12T11:25:18.862Z,2.29
2023-03-12T11:26:18.849Z,2.31
2023-03-12T11:27:18.812Z,2.32
2023-03-12T11:28:18.832Z,2.33
2023-03-12T11:29:18.832Z,2.35
2023-03-12T11:30:18.793Z,2.33
2023-03-12T11:31:18.858Z,2.36
2023-03-12T11:32:18.823Z,2.36
2023-03-12T11:33:18.720Z,2.39
2023-03-12T11:34:18.707Z,2.39
2023-03-12T11:35:18.720Z,2.42
2023-03-12T11:36:18.719Z,2.42
2023-03-12T11:37:18.691Z,2.42
2023-03-12T11:38:18.717Z,2.39
2023-03-12T11:39:18.676Z,2.35
2023-03-12T11:40:18.669Z,2.32
2023-03-12T11:41:18.646Z,2.31
2023-03-12T11:42:18.630Z,2.32
2023-03-12T11:43:29.236Z,2.29
2023-03-12T11:44:18.632Z,2.31
2023-03-12T11:45:18.615Z,2.28
2023-03-12T11:46:18.609Z,2.31
2023-03-12T11:47:18.658Z,2.29
2023-03-12T11:48:18.601Z,2.33
2023-03-12T11:49:18.579Z,2.33
2023-03-12T11:50:18.609Z,2.39
2023-03-12T11:51:18.561Z,2.43
2023-03-12T11:52:18.533Z,2.43
2023-03-12T11:53:18.540Z,2.42
2023-03-12T11:54:18.525Z,2.42
2023-03-12T11:55:18.517Z,2.44
2023-03-12T11:56:18.537Z,2.47
2023-03-12T11:57:18.480Z,2.49
2023-03-12T11:58:18.471Z,2.49
2023-03-12T11:59:18.481Z,2.49
2023-03-12T12:00:18.456Z,2.50
2023-03-12T12:01:18.464Z,2.51
2023-03-12T12:02:18.610Z,2.53
2023-03-12T12:03:18.454Z,2.57
2023-03-12T12:04:18.423Z,2.57
2023-03-12T12:05:18.476Z,2.57
2023-03-12T12:06:18.405Z,2.61
2023-03-12T12:07:18.387Z,2.51
2023-03-12T12:08:18.424Z,2.50
2023-03-12T12:09:18.384Z,2.51
2023-03-12T12:10:18.373Z,2.51
2023-03-12T12:11:18.764Z,2.53
2023-03-12T12:12:18.334Z,2.50
2023-03-12T12:13:18.352Z,2.50
2023-03-12T12:14:18.326Z,2.51
2023-03-12T12:15:18.325Z,2.50
2023-03-12T12:16:18.403Z,2.49
2023-03-12T12:17:18.339Z,2.51
2023-03-12T12:18:18.296Z,2.50
2023-03-12T12:19:18.292Z,2.47
2023-03-12T12:20:18.488Z,2.50
2023-03-12T12:21:18.246Z,2.51
2023-03-12T12:22:18.260Z,2.53
2023-03-12T12:23:18.264Z,2.53
2023-03-12T12:24:18.386Z,2.46
2023-03-12T12:25:18.217Z,2.44
2023-03-12T12:26:18.204Z,2.46
2023-03-12T12:27:18.239Z,2.47
2023-03-12T12:28:18.217Z,2.50
2023-03-12T12:29:18.182Z,2.54
2023-03-12T12:30:18.232Z,2.60
2023-03-12T12:31:18.253Z,2.65
2023-03-12T12:32:18.212Z,2.65
2023-03-12T12:33:18.179Z,2.68
2023-03-12T12:34:18.168Z,2.75
2023-03-12T12:35:18.128Z,2.79
2023-03-12T12:36:18.188Z,2.77
2023-03-12T12:37:18.093Z,2.80
2023-03-12T12:38:18.072Z,2.80
2023-03-12T12:39:18.155Z,2.79
2023-03-12T12:40:18.152Z,2.82
2023-03-12T12:41:18.097Z,2.86
2023-03-12T12:42:18.072Z,2.90
2023-03-12T12:43:18.049Z,2.92
2023-03-12T12:44:18.043Z,2.93
2023-03-12T12:45:18.048Z,2.97
2023-03-12T12:46:18.121Z,2.97
2023-03-12T12:47:17.997Z,2.97
2023-03-12T12:48:17.994Z,3.01
2023-03-12T12:49:17.972Z,3.03
2023-03-12T12:50:18.040Z,3.04
2023-03-12T12:51:17.973Z,3.05
2023-03-12T12:52:17.941Z,3.05
2023-03-12T12:53:17.942Z,3.04
2023-03-12T12:54:17.931Z,3.08
2023-03-12T12:55:17.924Z,3.07
2023-03-12T12:56:17.964Z,3.08
2023-03-12T12:57:17.916Z,3.13
2023-03-12T12:58:17.917Z,3.10
2023-03-12T12:59:17.895Z,3.10
2023-03-12T13:00:18.022Z,3.10
2023-03-12T13:01:17.938Z,3.10
2023-03-12T13:02:17.905Z,3.11
2023-03-12T13:03:17.856Z,3.10